Time;durP1;ratioP1;P1;durP2;ratioP2;P2;SDS_P1;SDS_P2;PMS_P1;PMS_P2;Temp;Humidity;BMP_temperature;BMP_pressure;BME280_temperature;BME280_humidity;BME280_pressure;Samples;Min_cycle;Max_cycle;Signal;HPM_P1;HPM_P2
2022/12/10 00:01:15;;;;;;;33.33;18.35;;;0.80;99.90;;;;;;5052882;28;20249;-69
2022/12/10 00:03:41;;;;;;;42.88;21.20;;;0.80;99.90;;;;;;5053894;28;20293;-70
2022/12/10 00:06:10;;;;;;;32.95;17.70;;;0.70;99.90;;;;;;5053325;28;20231;-68
2022/12/10 00:08:36;;;;;;;35.25;18.08;;;0.60;99.90;;;;;;5054091;28;20611;-68
2022/12/10 00:11:04;;;;;;;34.67;22.92;;;0.60;99.90;;;;;;5053995;28;20186;-69
2022/12/10 00:13:30;;;;;;;44.78;24.00;;;0.60;99.90;;;;;;5053732;28;20200;-69
2022/12/10 00:16:00;;;;;;;39.22;21.58;;;0.60;99.90;;;;;;5053200;28;20170;-69
2022/12/10 00:18:25;;;;;;;54.58;21.23;;;0.50;99.90;;;;;;5054008;28;20170;-69
2022/12/10 00:20:51;;;;;;;39.50;20.97;;;0.60;99.90;;;;;;5053835;28;20208;-70
2022/12/10 00:23:17;;;;;;;36.70;22.57;;;0.60;99.90;;;;;;5053853;28;20205;-70
2022/12/10 00:25:42;;;;;;;39.50;20.20;;;0.60;99.90;;;;;;5052799;28;20182;-69
2022/12/10 00:28:08;;;;;;;44.83;22.00;;;0.50;99.90;;;;;;5053956;28;20175;-70
2022/12/10 00:30:34;;;;;;;40.67;20.93;;;0.50;99.90;;;;;;5053800;28;20236;-70
2022/12/10 00:33:00;;;;;;;36.77;19.60;;;0.50;99.90;;;;;;5053784;28;20684;-70
2022/12/10 00:35:26;;;;;;;41.08;22.90;;;0.40;99.90;;;;;;5052887;28;20421;-68
2022/12/10 00:37:52;;;;;;;40.10;20.77;;;0.40;99.90;;;;;;5053671;28;20179;-68
2022/12/10 00:40:17;;;;;;;39.60;21.47;;;0.40;99.90;;;;;;5052935;28;20202;-69
2022/12/10 00:42:43;;;;;;;41.70;21.87;;;0.40;99.90;;;;;;5052536;28;20179;-68
2022/12/10 00:45:09;;;;;;;41.53;23.33;;;0.40;99.90;;;;;;5051600;28;20609;-69
2022/12/10 00:47:35;;;;;;;34.83;19.40;;;0.30;99.90;;;;;;5053512;28;20167;-70
2022/12/10 00:50:00;;;;;;;47.00;22.77;;;0.30;99.90;;;;;;5052318;28;20401;-71
2022/12/10 00:52:26;;;;;;;36.83;21.77;;;0.30;99.90;;;;;;5053497;28;20246;-71
2022/12/10 00:54:52;;;;;;;42.23;21.70;;;0.30;99.90;;;;;;5051559;28;20195;-71
2022/12/10 00:57:18;;;;;;;49.77;20.97;;;0.30;99.90;;;;;;5052208;28;20409;-69
2022/12/10 00:59:43;;;;;;;47.67;22.70;;;0.40;99.90;;;;;;5053343;28;20166;-68
2022/12/10 01:02:09;;;;;;;43.67;24.07;;;0.40;99.90;;;;;;5053206;28;20199;-70
2022/12/10 01:04:35;;;;;;;49.00;22.43;;;0.40;99.90;;;;;;5052580;28;20285;-71
2022/12/10 01:07:01;;;;;;;33.10;19.17;;;0.30;99.90;;;;;;5053291;28;20171;-68
2022/12/10 01:09:29;;;;;;;33.20;18.63;;;0.40;99.90;;;;;;5052152;28;20213;-70
2022/12/10 01:11:57;;;;;;;37.63;20.75;;;0.40;99.90;;;;;;5053064;28;20167;-69
2022/12/10 01:14:25;;;;;;;33.78;19.30;;;0.40;99.90;;;;;;5052562;28;20198;-71
2022/12/10 01:16:57;;;;;;;40.80;20.17;;;0.50;99.90;;;;;;5053250;28;20171;-71
2022/12/10 01:19:23;;;;;;;38.28;21.05;;;0.40;99.90;;;;;;5052079;28;20265;-70
2022/12/10 01:21:53;;;;;;;34.10;19.77;;;0.50;99.90;;;;;;5052969;28;20278;-71
2022/12/10 01:24:20;;;;;;;41.60;20.85;;;0.40;99.90;;;;;;5052356;28;20924;-69
2022/12/10 01:26:46;;;;;;;30.25;18.25;;;0.40;99.90;;;;;;5053382;28;20574;-68
2022/12/10 01:29:12;;;;;;;38.03;19.07;;;0.40;99.90;;;;;;5053166;28;20171;-69
2022/12/10 01:31:38;;;;;;;38.13;18.97;;;0.40;99.90;;;;;;5051855;28;20657;-70
2022/12/10 01:34:06;;;;;;;43.42;16.95;;;0.40;99.90;;;;;;5052802;28;20240;-71
2022/12/10 01:36:38;;;;;;;31.08;16.75;;;0.40;99.90;;;;;;5052571;28;20244;-69
2022/12/10 01:39:07;;;;;;;36.20;18.33;;;0.40;99.90;;;;;;5052898;28;20246;-69
2022/12/10 01:41:37;;;;;;;35.72;17.45;;;0.40;99.90;;;;;;5053074;28;20662;-68
2022/12/10 01:44:25;;;;;;;39.13;18.08;;;0.40;99.90;;;;;;5052738;28;20191;-71
2022/12/10 01:46:53;;;;;;;30.70;15.70;;;0.50;99.90;;;;;;5012096;28;20270;-71
2022/12/10 01:49:34;;;;;;;34.38;17.52;;;0.40;99.90;;;;;;5052899;28;20167;-70
2022/12/10 01:52:01;;;;;;;31.63;16.13;;;0.30;99.90;;;;;;5054494;28;20631;-71
2022/12/10 01:54:32;;;;;;;31.02;18.00;;;0.30;99.90;;;;;;5055806;28;20738;-71
2022/12/10 01:57:20;;;;;;;29.02;16.30;;;0.40;99.90;;;;;;5056610;28;20170;-68
2022/12/10 01:59:49;;;;;;;34.33;16.88;;;0.40;99.90;;;;;;5055481;28;20187;-70
2022/12/10 02:02:49;;;;;;;36.28;17.95;;;0.30;99.90;;;;;;5056430;28;20704;-69
2022/12/10 02:05:36;;;;;;;32.88;15.40;;;0.30;99.90;;;;;;5054630;28;20210;-70
2022/12/10 02:08:23;;;;;;;30.10;15.45;;;0.30;99.90;;;;;;5056392;28;20155;-69
2022/12/10 02:10:55;;;;;;;33.22;15.70;;;0.40;99.90;;;;;;5056271;28;20588;-69
2022/12/10 02:13:29;;;;;;;30.20;15.90;;;0.40;99.90;;;;;;5056366;28;20531;-70
2022/12/10 02:16:11;;;;;;;29.52;14.60;;;0.40;99.90;;;;;;5055532;28;20710;-70
2022/12/10 02:18:56;;;;;;;32.75;15.70;;;0.40;99.90;;;;;;5056093;28;20178;-68
2022/12/10 02:21:28;;;;;;;32.70;17.23;;;0.50;99.90;;;;;;5054829;28;20682;-70
2022/12/10 02:24:01;;;;;;;37.78;16.63;;;0.50;99.90;;;;;;5056092;28;20289;-70
2022/12/10 02:26:49;;;;;;;24.92;14.32;;;0.50;99.90;;;;;;5055469;28;20167;-69
2022/12/10 02:29:24;;;;;;;34.22;15.73;;;0.50;99.90;;;;;;5056114;28;20167;-71
2022/12/10 02:31:59;;;;;;;26.08;14.55;;;0.40;99.90;;;;;;5056053;28;20198;-69
2022/12/10 02:34:30;;;;;;;31.45;15.90;;;0.40;99.90;;;;;;5054073;28;20201;-69
2022/12/10 02:37:00;;;;;;;33.00;16.40;;;0.40;99.90;;;;;;5055892;28;20635;-69
2022/12/10 02:39:31;;;;;;;30.02;15.88;;;0.40;99.90;;;;;;5054486;28;20301;-69
2022/12/10 02:41:59;;;;;;;31.08;15.82;;;0.50;99.90;;;;;;5054537;28;20722;-70
2022/12/10 02:44:27;;;;;;;30.88;16.25;;;0.60;99.90;;;;;;5055183;28;20230;-69
2022/12/10 02:46:56;;;;;;;35.65;16.73;;;0.60;99.90;;;;;;5055618;28;20171;-68
2022/12/10 02:49:23;;;;;;;27.83;15.77;;;0.50;99.90;;;;;;5055705;28;20256;-71
2022/12/10 02:51:49;;;;;;;36.67;16.07;;;0.60;99.90;;;;;;5054252;28;20611;-71
2022/12/10 02:54:39;;;;;;;29.57;18.13;;;0.60;99.90;;;;;;5055299;28;20457;-71
2022/12/10 02:57:20;;;;;;;38.22;16.02;;;0.50;99.90;;;;;;5055340;28;20167;-68
2022/12/10 02:59:55;;;;;;;31.15;15.70;;;0.50;99.90;;;;;;5054401;28;20183;-69
2022/12/10 03:02:59;;;;;;;29.90;15.82;;;0.50;99.90;;;;;;5054795;28;20190;-70
2022/12/10 03:05:48;;;;;;;34.20;14.73;;;0.50;99.90;;;;;;5037547;28;20215;-70
2022/12/10 03:08:28;;;;;;;30.15;14.95;;;0.40;99.90;;;;;;5055078;28;20175;-70
2022/12/10 03:11:18;;;;;;;31.10;15.98;;;0.40;99.90;;;;;;5055144;28;20202;-71
2022/12/10 03:13:57;;;;;;;27.10;13.77;;;0.50;99.90;;;;;;5055176;28;20554;-71
2022/12/10 03:16:25;;;;;;;28.02;14.38;;;0.40;99.90;;;;;;5054421;28;20174;-71
2022/12/10 03:18:55;;;;;;;27.75;14.27;;;0.40;99.90;;;;;;5055069;28;20205;-69
2022/12/10 03:21:22;;;;;;;26.60;14.60;;;0.50;99.90;;;;;;5054885;28;20211;-71
2022/12/10 03:23:50;;;;;;;34.38;17.17;;;0.40;99.90;;;;;;5055026;28;20194;-68
2022/12/10 03:26:18;;;;;;;25.38;13.98;;;0.40;99.90;;;;;;5054173;28;20171;-69
2022/12/10 03:28:50;;;;;;;35.05;14.70;;;0.50;99.90;;;;;;5054816;28;20216;-71
2022/12/10 03:31:18;;;;;;;32.30;16.02;;;0.50;99.90;;;;;;5054630;28;20261;-68
2022/12/10 03:33:45;;;;;;;29.45;15.82;;;0.40;99.90;;;;;;5054804;28;20198;-71
2022/12/10 03:36:12;;;;;;;30.42;15.65;;;0.50;99.90;;;;;;5054142;28;20202;-71
2022/12/10 03:38:38;;;;;;;27.42;14.05;;;0.50;99.90;;;;;;5054764;28;20171;-68
2022/12/10 03:41:04;;;;;;;31.70;15.27;;;0.60;99.90;;;;;;5054668;28;20198;-70
2022/12/10 03:43:29;;;;;;;31.60;15.73;;;0.50;99.90;;;;;;5054424;28;20167;-69
2022/12/10 03:45:55;;;;;;;29.60;14.80;;;0.60;99.90;;;;;;5053875;28;20897;-71
2022/12/10 03:48:21;;;;;;;25.17;15.23;;;0.60;99.90;;;;;;5053504;28;20175;-70
2022/12/10 03:50:46;;;;;;;29.03;15.17;;;0.60;99.90;;;;;;5053378;28;20171;-70
2022/12/10 03:53:12;;;;;;;31.63;16.70;;;0.70;99.90;;;;;;5054319;28;20171;-69
2022/12/10 03:55:38;;;;;;;32.07;18.10;;;0.70;99.90;;;;;;5053552;28;20195;-68
2022/12/10 03:58:04;;;;;;;31.53;16.13;;;0.70;99.90;;;;;;5054331;28;20217;-71
2022/12/10 04:00:29;;;;;;;30.70;15.80;;;0.70;99.90;;;;;;5054198;28;20441;-70
2022/12/10 04:02:55;;;;;;;27.87;14.50;;;0.70;99.90;;;;;;5054220;28;20615;-70
2022/12/10 04:05:21;;;;;;;30.10;16.63;;;0.70;99.90;;;;;;5052191;28;20272;-69
2022/12/10 04:07:46;;;;;;;32.17;16.40;;;0.70;99.90;;;;;;5053818;28;20183;-68
2022/12/10 04:10:12;;;;;;;26.87;16.73;;;0.80;99.90;;;;;;5054163;28;20179;-68
2022/12/10 04:12:38;;;;;;;37.63;16.20;;;0.80;99.90;;;;;;5054017;28;20167;-70
2022/12/10 04:17:48;;;;;;;30.40;15.30;;;0.80;99.90;;;;;;5053875;28;20170;-68
2022/12/10 04:28:26;;;;;;;36.67;15.45;;;0.90;99.90;;;;;;5053720;28;20170;-68
2022/12/10 04:30:52;;;;;;;30.70;16.13;;;0.90;99.90;;;;;;5053844;28;20179;-70
2022/12/10 04:33:18;;;;;;;32.93;17.60;;;0.90;99.90;;;;;;5053640;28;20178;-71
2022/12/10 04:35:43;;;;;;;22.93;13.43;;;0.90;99.90;;;;;;5052756;28;20194;-71
2022/12/10 04:38:09;;;;;;;27.80;15.30;;;0.90;99.90;;;;;;5053561;28;20254;-68
2022/12/10 04:40:35;;;;;;;29.60;15.90;;;0.90;99.90;;;;;;5053793;28;20194;-68
2022/12/10 04:43:00;;;;;;;27.43;14.13;;;0.90;99.90;;;;;;5052469;28;20174;-68
2022/12/10 04:45:26;;;;;;;32.70;14.47;;;0.90;99.90;;;;;;5052687;28;20186;-68
2022/12/10 04:47:52;;;;;;;24.17;13.17;;;0.80;99.90;;;;;;5053487;28;20246;-71
2022/12/10 04:50:17;;;;;;;26.43;15.27;;;0.70;99.90;;;;;;5052494;28;20171;-68
2022/12/10 04:52:43;;;;;;;20.50;14.77;;;0.70;99.90;;;;;;5053393;28;20250;-70
2022/12/10 04:55:09;;;;;;;24.00;12.67;;;0.70;99.90;;;;;;5052696;28;20186;-70
2022/12/10 04:57:34;;;;;;;29.80;15.60;;;0.70;99.90;;;;;;5053351;28;20159;-70
2022/12/10 05:00:00;;;;;;;26.73;15.97;;;0.70;99.90;;;;;;5052369;28;20655;-71
2022/12/10 05:02:26;;;;;;;27.47;15.13;;;0.70;99.90;;;;;;5053378;28;20199;-70
2022/12/10 05:04:51;;;;;;;27.80;14.70;;;0.70;99.90;;;;;;5051425;28;20290;-70
2022/12/10 05:07:17;;;;;;;27.80;16.47;;;0.70;99.90;;;;;;5053318;28;20586;-70
2022/12/10 05:09:43;;;;;;;22.53;13.87;;;0.80;99.90;;;;;;5051752;28;20170;-68
2022/12/10 05:12:08;;;;;;;27.93;15.77;;;0.80;99.90;;;;;;5053185;28;20221;-68
2022/12/10 05:14:34;;;;;;;24.77;14.77;;;0.80;99.90;;;;;;5052537;28;20555;-71
2022/12/10 05:17:00;;;;;;;35.20;16.43;;;0.80;99.90;;;;;;5053228;28;20175;-71
2022/12/10 05:19:28;;;;;;;30.37;16.80;;;0.70;99.90;;;;;;5053082;28;20174;-70
2022/12/10 05:24:38;;;;;;;30.17;15.10;;;0.80;99.90;;;;;;5052609;28;20412;-70
2022/12/10 05:27:04;;;;;;;26.67;14.30;;;0.70;99.90;;;;;;5055243;28;20174;-72
2022/12/10 05:29:32;;;;;;;27.60;14.70;;;0.60;99.90;;;;;;5057241;28;20214;-71
2022/12/10 05:31:58;;;;;;;21.35;13.15;;;0.60;99.90;;;;;;5055910;28;20414;-71
2022/12/10 05:34:23;;;;;;;24.13;13.37;;;0.60;99.90;;;;;;5056267;28;20194;-71
2022/12/10 05:36:49;;;;;;;23.43;13.10;;;0.60;99.90;;;;;;5057352;28;20580;-68
2022/12/10 05:39:15;;;;;;;25.60;13.67;;;0.70;99.90;;;;;;5057284;28;20197;-69
2022/12/10 05:41:43;;;;;;;25.57;14.17;;;0.70;99.90;;;;;;5056986;28;20222;-68
2022/12/10 05:44:10;;;;;;;23.20;13.32;;;0.70;99.90;;;;;;5056536;28;20182;-69
2022/12/10 05:46:36;;;;;;;29.40;16.42;;;0.70;99.90;;;;;;5056407;28;20245;-69
2022/12/10 05:49:03;;;;;;;27.80;13.73;;;0.80;99.90;;;;;;5056769;28;20576;-71
2022/12/10 05:51:32;;;;;;;26.00;14.35;;;0.70;99.90;;;;;;5056875;28;20610;-68
2022/12/10 05:53:59;;;;;;;24.52;14.30;;;0.70;99.90;;;;;;5056616;28;20281;-70
2022/12/10 05:56:26;;;;;;;22.70;14.55;;;0.70;99.90;;;;;;5056075;28;20555;-68
2022/12/10 05:58:54;;;;;;;21.52;13.93;;;0.70;99.90;;;;;;5056444;28;20179;-71
2022/12/10 06:01:25;;;;;;;29.37;16.50;;;0.70;99.90;;;;;;5056561;28;20244;-70
2022/12/10 06:03:52;;;;;;;28.80;14.52;;;0.60;99.90;;;;;;5055123;28;20425;-68
2022/12/10 06:06:27;;;;;;;29.88;13.68;;;0.60;99.90;;;;;;5055605;28;20179;-70
2022/12/10 06:08:52;;;;;;;33.38;15.77;;;0.60;99.90;;;;;;5055128;28;20173;-70
2022/12/10 06:11:19;;;;;;;28.07;13.83;;;0.50;99.90;;;;;;5056452;28;20178;-71
2022/12/10 06:13:45;;;;;;;24.13;12.87;;;0.60;99.90;;;;;;5056212;28;20425;-69
2022/12/10 06:16:13;;;;;;;23.33;15.43;;;0.60;99.90;;;;;;5055658;28;20401;-68
2022/12/10 06:18:39;;;;;;;23.48;13.40;;;0.50;99.90;;;;;;5056130;28;20265;-68
2022/12/10 06:21:06;;;;;;;23.70;14.73;;;0.60;99.90;;;;;;5056193;28;20197;-71
2022/12/10 06:23:34;;;;;;;22.60;14.23;;;0.60;99.90;;;;;;5056017;28;20403;-70
2022/12/10 06:26:14;;;;;;;22.23;12.68;;;0.60;99.90;;;;;;5055394;28;20411;-70
2022/12/10 06:28:41;;;;;;;20.00;14.43;;;0.60;99.90;;;;;;5055933;28;20205;-71
2022/12/10 06:31:07;;;;;;;23.38;14.07;;;0.60;99.90;;;;;;5056145;28;20175;-68
2022/12/10 06:33:32;;;;;;;22.30;12.97;;;0.60;99.90;;;;;;5056115;28;20212;-70
2022/12/10 06:35:59;;;;;;;24.73;13.20;;;0.70;99.90;;;;;;5055223;28;20181;-72
2022/12/10 06:38:25;;;;;;;25.10;13.45;;;0.60;99.90;;;;;;5055026;28;20657;-70
2022/12/10 06:40:51;;;;;;;31.03;15.53;;;0.60;99.90;;;;;;5055288;28;20281;-70
2022/12/10 06:43:16;;;;;;;28.88;13.70;;;0.50;99.90;;;;;;5055883;28;20405;-71
2022/12/10 06:45:43;;;;;;;21.03;12.17;;;0.50;99.90;;;;;;5054017;28;20203;-68
2022/12/10 06:48:09;;;;;;;20.88;12.57;;;0.50;99.90;;;;;;5055868;28;20675;-70
2022/12/10 06:50:35;;;;;;;20.17;11.25;;;0.40;99.90;;;;;;5055424;28;20179;-68
2022/12/10 06:53:02;;;;;;;17.10;10.77;;;0.40;99.90;;;;;;5055712;28;20173;-69
2022/12/10 06:55:28;;;;;;;21.70;12.70;;;0.40;99.90;;;;;;5054730;28;20325;-71
2022/12/10 06:57:54;;;;;;;21.65;11.77;;;0.30;99.90;;;;;;5055549;28;20190;-69
2022/12/10 07:00:21;;;;;;;30.08;13.05;;;0.30;99.90;;;;;;5055186;28;20233;-69
2022/12/10 07:02:47;;;;;;;15.98;11.57;;;0.20;99.90;;;;;;5055214;28;20169;-71
2022/12/10 07:05:13;;;;;;;17.25;11.65;;;0.20;99.90;;;;;;5054548;28;20256;-68
2022/12/10 07:07:39;;;;;;;23.33;13.20;;;0.30;99.90;;;;;;5055388;28;20520;-71
2022/12/10 07:10:05;;;;;;;18.40;11.90;;;0.20;99.90;;;;;;5070939;28;20179;-69
2022/12/10 07:12:31;;;;;;;22.27;13.55;;;0.30;99.90;;;;;;5055203;28;20750;-69
2022/12/10 07:14:57;;;;;;;18.60;11.20;;;0.40;99.90;;;;;;5069736;28;20285;-71
2022/12/10 07:17:23;;;;;;;20.70;12.07;;;0.40;99.90;;;;;;5054899;28;20421;-71
2022/12/10 07:19:48;;;;;;;23.10;12.63;;;0.40;99.90;;;;;;5055106;28;20178;-68
2022/12/10 07:22:14;;;;;;;17.03;10.53;;;0.40;99.90;;;;;;5054869;28;20620;-68
2022/12/10 07:24:40;;;;;;;15.97;10.30;;;0.50;99.90;;;;;;5054011;28;20192;-70
2022/12/10 07:27:06;;;;;;;27.10;12.53;;;0.50;99.90;;;;;;5054848;28;20167;-69
2022/12/10 07:29:32;;;;;;;21.95;11.63;;;0.50;99.90;;;;;;5055025;28;20574;-70
2022/12/10 07:31:58;;;;;;;18.47;12.17;;;0.60;99.90;;;;;;5054967;28;20175;-68
2022/12/10 07:34:23;;;;;;;19.50;11.53;;;0.50;99.90;;;;;;5054058;28;20198;-71
2022/12/10 07:36:49;;;;;;;19.40;10.80;;;0.50;99.90;;;;;;5053267;28;20182;-71
2022/12/10 07:39:17;;;;;;;19.50;11.80;;;0.60;99.90;;;;;;5054612;28;20171;-68
2022/12/10 07:41:51;;;;;;;18.25;11.45;;;0.50;99.90;;;;;;5054768;28;20203;-68
2022/12/10 07:44:18;;;;;;;17.08;11.40;;;0.50;99.90;;;;;;5054295;28;20214;-73
2022/12/10 07:46:44;;;;;;;14.63;9.68;;;0.60;99.90;;;;;;5054646;28;20159;-70
2022/12/10 07:49:10;;;;;;;18.23;10.80;;;0.50;99.90;;;;;;5054488;28;20178;-69
2022/12/10 07:51:36;;;;;;;21.30;11.37;;;0.40;99.90;;;;;;5053450;28;20421;-68
2022/12/10 07:54:01;;;;;;;20.27;11.60;;;0.30;99.90;;;;;;5054377;28;20199;-71
2022/12/10 07:56:27;;;;;;;21.00;11.13;;;0.40;99.90;;;;;;5052927;28;20413;-68
2022/12/10 07:58:53;;;;;;;15.60;9.00;;;0.40;99.90;;;;;;5053417;28;20265;-70
2022/12/10 08:01:24;;;;;;;13.77;10.00;;;0.40;99.90;;;;;;5052772;28;20221;-68
2022/12/10 08:03:51;;;;;;;13.52;8.85;;;0.30;99.90;;;;;;5054267;28;20424;-68
2022/12/10 08:06:20;;;;;;;15.23;9.70;;;0.30;99.90;;;;;;5053398;28;20184;-69
2022/12/10 08:08:48;;;;;;;24.90;11.27;;;0.30;99.90;;;;;;5054311;28;20197;-70
2022/12/10 08:11:15;;;;;;;14.80;10.50;;;0.30;99.90;;;;;;5054074;28;20248;-70
2022/12/10 08:13:41;;;;;;;14.80;9.45;;;0.30;99.90;;;;;;5053949;28;20284;-69
2022/12/10 08:16:14;;;;;;;17.50;10.23;;;0.20;99.90;;;;;;5053414;28;20205;-69
2022/12/10 08:18:41;;;;;;;15.38;9.75;;;0.20;99.90;;;;;;5053925;28;20496;-70
2022/12/10 08:21:19;;;;;;;22.77;11.48;;;0.20;99.90;;;;;;5053826;28;20202;-69
2022/12/10 08:23:45;;;;;;;18.05;11.27;;;0.30;99.90;;;;;;5068955;28;20217;-69
2022/12/10 08:26:14;;;;;;;19.90;12.50;;;0.20;99.90;;;;;;5053197;28;20170;-71
2022/12/10 08:28:40;;;;;;;20.60;10.18;;;0.20;99.90;;;;;;5053897;28;20169;-69
2022/12/10 08:31:09;;;;;;;22.93;13.03;;;0.20;99.90;;;;;;5069075;28;20210;-69
2022/12/10 08:33:36;;;;;;;19.15;11.10;;;0.20;99.90;;;;;;5053512;28;20409;-71
2022/12/10 08:36:03;;;;;;;17.88;11.73;;;0.20;99.90;;;;;;5052954;28;20535;-68
2022/12/10 08:38:30;;;;;;;17.65;12.05;;;0.10;99.90;;;;;;5053562;28;20620;-68
2022/12/10 08:40:55;;;;;;;13.90;11.02;;;0.10;99.90;;;;;;5053111;28;20225;-68
2022/12/10 08:43:21;;;;;;;19.10;11.70;;;0.00;99.90;;;;;;5053473;28;20702;-71
2022/12/10 08:45:47;;;;;;;22.27;12.40;;;0.00;99.90;;;;;;5051436;28;20175;-68
2022/12/10 08:48:12;;;;;;;18.17;12.20;;;0.00;99.90;;;;;;5052172;28;20206;-70
2022/12/10 08:50:39;;;;;;;19.73;12.17;;;0.00;99.90;;;;;;5052155;28;20166;-72
2022/12/10 08:53:04;;;;;;;18.45;11.50;;;-0.10;99.90;;;;;;5052441;28;20261;-69
2022/12/10 08:55:30;;;;;;;19.93;9.93;;;0.00;99.90;;;;;;5052512;28;20285;-71
2022/12/10 08:57:57;;;;;;;19.07;10.27;;;0.00;99.90;;;;;;5052066;28;20189;-71
2022/12/10 09:00:23;;;;;;;17.58;11.45;;;0.10;99.90;;;;;;5052782;28;20175;-70
2022/12/10 09:02:49;;;;;;;16.08;10.50;;;0.00;99.90;;;;;;5052275;28;20476;-70
2022/12/10 09:05:15;;;;;;;15.20;9.40;;;0.00;99.90;;;;;;5052532;28;20207;-69
2022/12/10 09:07:40;;;;;;;16.10;10.37;;;0.00;99.90;;;;;;5053121;28;20203;-69
2022/12/10 09:10:07;;;;;;;18.00;10.90;;;0.00;99.90;;;;;;5052242;28;20171;-68
2022/12/10 09:12:34;;;;;;;20.33;11.95;;;0.10;99.90;;;;;;5052202;28;20262;-70
2022/12/10 09:14:59;;;;;;;22.38;11.95;;;0.00;99.90;;;;;;5052551;28;20608;-69
2022/12/10 09:17:25;;;;;;;14.87;10.23;;;0.10;99.90;;;;;;5051886;28;20194;-69
2022/12/10 09:19:51;;;;;;;15.43;10.50;;;0.00;99.90;;;;;;5053097;28;20217;-69
2022/12/10 09:22:17;;;;;;;18.60;10.20;;;0.00;99.90;;;;;;5053228;28;20194;-68
2022/12/10 09:24:42;;;;;;;18.80;10.50;;;0.00;99.90;;;;;;5051017;28;20191;-68
2022/12/10 09:27:08;;;;;;;17.13;10.30;;;-0.10;99.90;;;;;;5053143;28;20170;-70
2022/12/10 09:29:34;;;;;;;13.80;9.73;;;-0.10;99.90;;;;;;5051773;28;20163;-70
2022/12/10 09:32:00;;;;;;;18.70;11.80;;;-0.10;99.90;;;;;;5052916;28;20413;-69
2022/12/10 09:34:25;;;;;;;10.73;8.30;;;-0.10;99.90;;;;;;5050948;28;20191;-71
2022/12/10 09:36:51;;;;;;;15.13;10.27;;;-0.10;99.90;;;;;;5053121;28;20651;-69
2022/12/10 09:39:17;;;;;;;18.30;10.80;;;-0.10;99.90;;;;;;5053030;28;20171;-69
2022/12/10 09:42:07;;;;;;;20.40;11.30;;;-0.10;99.90;;;;;;5051519;28;20195;-71
2022/12/10 09:44:56;;;;;;;17.55;10.50;;;0.00;99.90;;;;;;5052636;28;20659;-70
2022/12/10 09:47:31;;;;;;;16.02;10.65;;;0.10;99.90;;;;;;5021230;28;20639;-70
2022/12/10 09:50:22;;;;;;;17.20;10.45;;;0.10;99.90;;;;;;5052970;28;20173;-69
2022/12/10 09:52:50;;;;;;;13.35;10.20;;;0.10;99.90;;;;;;5053058;28;20210;-69
2022/12/10 09:55:27;;;;;;;19.13;10.55;;;0.00;99.90;;;;;;5052273;28;20662;-70
2022/12/10 09:57:53;;;;;;;14.48;9.80;;;0.10;99.90;;;;;;5052937;28;20225;-68
2022/12/10 10:00:19;;;;;;;16.20;10.20;;;0.10;99.90;;;;;;5052676;28;20187;-70
2022/12/10 10:02:46;;;;;;;17.77;10.20;;;0.10;99.90;;;;;;5051535;28;20421;-69
2022/12/10 10:05:21;;;;;;;17.92;11.85;;;0.10;99.90;;;;;;5052230;28;20610;-69
2022/12/10 10:08:00;;;;;;;21.10;11.40;;;0.10;99.90;;;;;;5052855;28;20166;-69
2022/12/10 10:10:38;;;;;;;17.90;10.80;;;0.20;99.90;;;;;;5052700;28;20709;-68
2022/12/10 10:13:07;;;;;;;16.85;10.70;;;0.00;99.90;;;;;;5054288;28;20190;-71
2022/12/10 10:15:35;;;;;;;24.05;11.50;;;0.10;99.90;;;;;;5054519;28;20248;-68
2022/12/10 10:18:25;;;;;;;19.10;11.55;;;0.00;99.90;;;;;;5055505;28;20269;-69
2022/12/10 10:20:51;;;;;;;17.70;10.82;;;0.00;99.90;;;;;;5038287;28;20241;-70
2022/12/10 10:23:17;;;;;;;18.80;11.88;;;0.00;99.90;;;;;;5034971;28;20175;-69
2022/12/10 10:25:44;;;;;;;19.20;11.97;;;0.10;99.90;;;;;;5049748;28;20286;-68
2022/12/10 10:28:18;;;;;;;22.15;12.40;;;0.10;99.90;;;;;;5051414;28;20171;-69
2022/12/10 10:30:44;;;;;;;18.52;10.98;;;0.00;99.90;;;;;;5036062;28;20543;-70
2022/12/10 10:33:12;;;;;;;20.10;11.87;;;0.00;99.90;;;;;;5041913;28;20168;-74
2022/12/10 10:35:46;;;;;;;21.95;12.48;;;0.10;99.90;;;;;;5040620;28;20452;-71
2022/12/10 10:38:25;;;;;;;20.52;11.20;;;0.20;99.90;;;;;;5055773;28;20651;-71
2022/12/10 10:40:57;;;;;;;16.77;10.48;;;0.20;99.90;;;;;;5071049;28;20749;-70
2022/12/10 10:43:31;;;;;;;16.48;10.32;;;0.20;99.90;;;;;;5055804;28;20210;-70
2022/12/10 10:46:01;;;;;;;12.93;9.38;;;0.20;99.90;;;;;;5054532;28;20173;-71
2022/12/10 10:48:29;;;;;;;18.58;10.70;;;0.10;99.90;;;;;;5055607;28;20167;-69
2022/12/10 10:51:15;;;;;;;13.32;9.65;;;0.10;99.90;;;;;;5055320;28;20175;-69
2022/12/10 10:53:45;;;;;;;14.35;9.07;;;0.20;99.90;;;;;;5055776;28;20166;-70
2022/12/10 10:56:21;;;;;;;15.50;10.07;;;0.10;99.90;;;;;;5049889;28;20275;-71
2022/12/10 10:58:52;;;;;;;16.13;11.00;;;0.00;99.90;;;;;;5034368;28;20241;-69
2022/12/10 11:01:19;;;;;;;15.75;10.13;;;0.00;99.90;;;;;;5044083;28;20624;-71
2022/12/10 11:03:50;;;;;;;16.80;9.60;;;0.00;99.90;;;;;;5055368;28;20241;-70
2022/12/10 11:06:16;;;;;;;12.25;8.55;;;-0.10;99.90;;;;;;5049560;28;20190;-70
2022/12/10 11:08:45;;;;;;;10.52;8.95;;;-0.20;99.90;;;;;;5035373;28;20221;-71
2022/12/10 11:11:18;;;;;;;13.30;8.75;;;-0.20;99.90;;;;;;5041746;28;20179;-71
2022/12/10 11:13:44;;;;;;;11.48;8.52;;;-0.20;99.90;;;;;;5054903;28;20601;-69
2022/12/10 11:16:20;;;;;;;17.43;10.27;;;-0.20;99.90;;;;;;5052197;28;20316;-69
2022/12/10 11:19:04;;;;;;;17.15;9.77;;;-0.20;99.90;;;;;;5047191;28;20206;-69
2022/12/10 11:21:34;;;;;;;19.70;10.52;;;-0.10;99.90;;;;;;5035097;28;20218;-69
2022/12/10 11:24:09;;;;;;;17.83;9.77;;;0.00;99.90;;;;;;5051887;28;20179;-69
2022/12/10 11:27:01;;;;;;;18.40;9.23;;;0.00;99.90;;;;;;5053345;28;20178;-71
2022/12/10 11:29:45;;;;;;;13.50;7.97;;;-0.10;99.90;;;;;;5053629;28;20284;-69
2022/12/10 11:32:40;;;;;;;14.57;9.07;;;-0.20;99.90;;;;;;5054929;28;20166;-70
2022/12/10 11:35:16;;;;;;;16.23;9.80;;;-0.30;99.90;;;;;;5045251;28;20191;-69
2022/12/10 11:37:51;;;;;;;13.13;9.15;;;-0.40;99.90;;;;;;5033825;28;20656;-71
2022/12/10 11:40:23;;;;;;;14.82;9.98;;;-0.30;99.90;;;;;;5034795;28;20245;-69
2022/12/10 11:43:07;;;;;;;13.32;8.50;;;-0.30;99.90;;;;;;5034615;28;20173;-71
2022/12/10 11:45:58;;;;;;;12.20;9.05;;;-0.30;99.90;;;;;;5033687;28;20591;-71
2022/12/10 11:49:08;;;;;;;13.75;8.52;;;-0.30;99.90;;;;;;5034620;28;20175;-71
2022/12/10 11:51:42;;;;;;;17.40;9.73;;;-0.30;99.90;;;;;;5016389;28;20270;-70
2022/12/10 11:54:40;;;;;;;15.73;11.55;;;-0.20;99.90;;;;;;5034150;28;20187;-69
2022/12/10 11:57:43;;;;;;;15.60;10.00;;;-0.20;99.90;;;;;;5033318;28;20179;-72
2022/12/10 12:00:22;;;;;;;13.27;9.35;;;-0.10;99.90;;;;;;5034595;28;20221;-71
2022/12/10 12:02:56;;;;;;;14.65;9.05;;;-0.20;99.90;;;;;;5034338;28;20202;-71
2022/12/10 12:05:27;;;;;;;15.85;10.48;;;-0.20;99.90;;;;;;5032184;28;20284;-70
2022/12/10 12:08:04;;;;;;;21.35;10.43;;;-0.20;99.90;;;;;;5034383;28;20168;-69
2022/12/10 12:10:35;;;;;;;17.33;10.80;;;-0.30;99.90;;;;;;5034174;28;20168;-68
2022/12/10 12:13:24;;;;;;;18.02;10.35;;;-0.30;99.90;;;;;;5034260;28;20285;-69
2022/12/10 12:16:06;;;;;;;14.25;8.35;;;-0.30;99.90;;;;;;5024119;28;20658;-70
2022/12/10 12:18:40;;;;;;;21.10;10.00;;;-0.10;99.90;;;;;;5034112;28;20244;-68
2022/12/10 12:21:10;;;;;;;15.57;10.02;;;-0.20;99.90;;;;;;5033956;28;20213;-71
2022/12/10 12:23:36;;;;;;;16.33;9.70;;;-0.20;99.90;;;;;;5033936;28;20258;-75
2022/12/10 12:26:09;;;;;;;14.67;8.90;;;-0.20;99.90;;;;;;5032043;28;20266;-68
2022/12/10 12:28:43;;;;;;;21.48;11.27;;;-0.20;99.90;;;;;;5032823;28;20215;-70
2022/12/10 12:31:15;;;;;;;17.98;11.73;;;-0.10;99.90;;;;;;5033792;28;20176;-69
2022/12/10 12:33:46;;;;;;;15.55;9.70;;;-0.10;99.90;;;;;;5033695;28;20194;-69
2022/12/10 12:36:22;;;;;;;16.25;9.10;;;-0.10;99.90;;;;;;5032109;28;20176;-69
2022/12/10 12:39:04;;;;;;;17.00;10.23;;;-0.10;99.90;;;;;;5033701;28;20286;-68
2022/12/10 12:41:43;;;;;;;15.13;8.82;;;-0.10;99.90;;;;;;5033485;28;20203;-69
2022/12/10 12:44:47;;;;;;;15.70;10.25;;;-0.20;99.90;;;;;;5033469;28;20229;-69
2022/12/10 12:47:49;;;;;;;12.52;8.27;;;-0.10;99.90;;;;;;4972487;28;20256;-70
2022/12/10 12:50:26;;;;;;;19.90;11.40;;;0.00;99.90;;;;;;4972938;28;20642;-70
2022/12/10 12:52:56;;;;;;;15.20;9.30;;;0.10;99.90;;;;;;5020817;28;20190;-70
2022/12/10 12:55:38;;;;;;;15.57;10.77;;;0.10;99.90;;;;;;5031198;28;20191;-69
2022/12/10 12:58:24;;;;;;;13.55;8.90;;;0.10;99.90;;;;;;5032387;28;20198;-69
2022/12/10 13:00:56;;;;;;;24.35;10.35;;;0.20;99.90;;;;;;5033490;28;20215;-70
2022/12/10 13:03:43;;;;;;;15.98;10.15;;;0.10;99.90;;;;;;5033347;28;20168;-71
2022/12/10 13:06:33;;;;;;;16.40;10.07;;;0.10;99.90;;;;;;5031100;28;20266;-69